sensor_id;sensor_type;location;lat;lon;timestamp;P1;durP1;ratioP1;P2;durP2;ratioP2
27706;SDS011;36332;51.384;0.040;2023-04-24T00:02:27;75.03;;;38.78;;
27706;SDS011;36332;51.384;0.040;2023-04-24T00:04:55;75.13;;;41.20;;
27706;SDS011;36332;51.384;0.040;2023-04-24T00:07:23;77.13;;;39.58;;
27706;SDS011;36332;51.384;0.040;2023-04-24T00:09:51;73.85;;;40.17;;
27706;SDS011;36332;51.384;0.040;2023-04-24T00:12:18;73.38;;;40.30;;
27706;SDS011;36332;51.384;0.040;2023-04-24T00:14:46;77.78;;;40.92;;
27706;SDS011;36332;51.384;0.040;2023-04-24T00:17:14;73.70;;;39.33;;
27706;SDS011;36332;51.384;0.040;2023-04-24T00:19:42;68.45;;;36.95;;
27706;SDS011;36332;51.384;0.040;2023-04-24T00:22:10;75.40;;;40.53;;
27706;SDS011;36332;51.384;0.040;2023-04-24T00:24:40;79.28;;;40.63;;
27706;SDS011;36332;51.384;0.040;2023-04-24T00:27:08;78.72;;;40.83;;
27706;SDS011;36332;51.384;0.040;2023-04-24T00:29:35;75.65;;;40.55;;
27706;SDS011;36332;51.384;0.040;2023-04-24T00:32:03;76.32;;;41.10;;
27706;SDS011;36332;51.384;0.040;2023-04-24T00:34:32;71.93;;;38.30;;
27706;SDS011;36332;51.384;0.040;2023-04-24T00:37:00;70.68;;;39.28;;
27706;SDS011;36332;51.384;0.040;2023-04-24T00:39:28;75.00;;;41.05;;
27706;SDS011;36332;51.384;0.040;2023-04-24T00:41:56;72.85;;;39.08;;
27706;SDS011;36332;51.384;0.040;2023-04-24T00:44:23;73.50;;;38.40;;
27706;SDS011;36332;51.384;0.040;2023-04-24T00:46:51;69.43;;;38.58;;
27706;SDS011;36332;51.384;0.040;2023-04-24T00:49:22;69.38;;;39.30;;
27706;SDS011;36332;51.384;0.040;2023-04-24T00:51:50;69.47;;;37.95;;
27706;SDS011;36332;51.384;0.040;2023-04-24T00:54:18;65.70;;;35.80;;
27706;SDS011;36332;51.384;0.040;2023-04-24T00:56:45;67.10;;;36.67;;
27706;SDS011;36332;51.384;0.040;2023-04-24T00:59:16;63.70;;;34.25;;
27706;SDS011;36332;51.384;0.040;2023-04-24T01:01:45;65.70;;;35.35;;
27706;SDS011;36332;51.384;0.040;2023-04-24T01:04:13;67.40;;;36.97;;
27706;SDS011;36332;51.384;0.040;2023-04-24T01:06:42;65.50;;;35.30;;
27706;SDS011;36332;51.384;0.040;2023-04-24T01:09:11;64.38;;;34.35;;
27706;SDS011;36332;51.384;0.040;2023-04-24T01:11:41;66.93;;;37.28;;
27706;SDS011;36332;51.384;0.040;2023-04-24T01:14:11;62.90;;;35.10;;
27706;SDS011;36332;51.384;0.040;2023-04-24T01:16:40;62.20;;;36.10;;
27706;SDS011;36332;51.384;0.040;2023-04-24T01:19:08;67.57;;;35.38;;
27706;SDS011;36332;51.384;0.040;2023-04-24T01:21:37;66.28;;;35.13;;
27706;SDS011;36332;51.384;0.040;2023-04-24T01:24:06;69.22;;;35.22;;
27706;SDS011;36332;51.384;0.040;2023-04-24T01:26:34;67.22;;;35.90;;
27706;SDS011;36332;51.384;0.040;2023-04-24T01:29:02;69.15;;;35.78;;
27706;SDS011;36332;51.384;0.040;2023-04-24T01:31:30;67.15;;;36.03;;
27706;SDS011;36332;51.384;0.040;2023-04-24T01:33:58;64.45;;;35.72;;
27706;SDS011;36332;51.384;0.040;2023-04-24T01:36:26;67.50;;;35.58;;
27706;SDS011;36332;51.384;0.040;2023-04-24T01:38:55;65.60;;;34.78;;
27706;SDS011;36332;51.384;0.040;2023-04-24T01:41:25;66.05;;;35.35;;
27706;SDS011;36332;51.384;0.040;2023-04-24T01:43:53;69.43;;;34.63;;
27706;SDS011;36332;51.384;0.040;2023-04-24T01:46:21;68.43;;;35.75;;
27706;SDS011;36332;51.384;0.040;2023-04-24T01:48:49;67.18;;;36.33;;
27706;SDS011;36332;51.384;0.040;2023-04-24T01:51:19;62.58;;;33.08;;
27706;SDS011;36332;51.384;0.040;2023-04-24T01:53:47;64.68;;;35.70;;
27706;SDS011;36332;51.384;0.040;2023-04-24T01:56:14;63.15;;;35.58;;
27706;SDS011;36332;51.384;0.040;2023-04-24T01:58:42;65.13;;;35.67;;
27706;SDS011;36332;51.384;0.040;2023-04-24T02:01:14;67.40;;;37.45;;
27706;SDS011;36332;51.384;0.040;2023-04-24T02:03:47;66.70;;;35.67;;
27706;SDS011;36332;51.384;0.040;2023-04-24T02:06:15;63.28;;;36.20;;
27706;SDS011;36332;51.384;0.040;2023-04-24T02:08:43;63.72;;;33.88;;
27706;SDS011;36332;51.384;0.040;2023-04-24T02:11:10;62.17;;;33.88;;
27706;SDS011;36332;51.384;0.040;2023-04-24T02:13:38;64.65;;;35.33;;
27706;SDS011;36332;51.384;0.040;2023-04-24T02:16:06;64.38;;;36.30;;
27706;SDS011;36332;51.384;0.040;2023-04-24T02:18:34;59.33;;;32.95;;
27706;SDS011;36332;51.384;0.040;2023-04-24T02:21:02;76.90;;;35.80;;
27706;SDS011;36332;51.384;0.040;2023-04-24T02:23:30;64.45;;;34.65;;
27706;SDS011;36332;51.384;0.040;2023-04-24T02:25:58;61.03;;;34.03;;
27706;SDS011;36332;51.384;0.040;2023-04-24T02:28:25;65.30;;;34.47;;
27706;SDS011;36332;51.384;0.040;2023-04-24T02:30:53;69.15;;;34.05;;
27706;SDS011;36332;51.384;0.040;2023-04-24T02:33:21;64.60;;;35.45;;
27706;SDS011;36332;51.384;0.040;2023-04-24T02:35:49;60.95;;;33.80;;
27706;SDS011;36332;51.384;0.040;2023-04-24T02:38:17;66.25;;;34.85;;
27706;SDS011;36332;51.384;0.040;2023-04-24T02:40:45;66.85;;;33.70;;
27706;SDS011;36332;51.384;0.040;2023-04-24T02:43:13;63.08;;;34.63;;
27706;SDS011;36332;51.384;0.040;2023-04-24T02:45:40;65.70;;;33.63;;
27706;SDS011;36332;51.384;0.040;2023-04-24T02:48:08;65.72;;;34.53;;
27706;SDS011;36332;51.384;0.040;2023-04-24T02:50:36;64.18;;;35.10;;
27706;SDS011;36332;51.384;0.040;2023-04-24T02:53:04;65.00;;;33.53;;
27706;SDS011;36332;51.384;0.040;2023-04-24T02:55:32;63.88;;;34.58;;
27706;SDS011;36332;51.384;0.040;2023-04-24T02:58:00;62.22;;;32.78;;
27706;SDS011;36332;51.384;0.040;2023-04-24T03:00:28;61.78;;;34.38;;
27706;SDS011;36332;51.384;0.040;2023-04-24T03:02:56;65.05;;;35.63;;
27706;SDS011;36332;51.384;0.040;2023-04-24T03:05:24;67.88;;;34.60;;
27706;SDS011;36332;51.384;0.040;2023-04-24T03:07:52;69.18;;;36.30;;
27706;SDS011;36332;51.384;0.040;2023-04-24T03:10:20;61.88;;;33.45;;
27706;SDS011;36332;51.384;0.040;2023-04-24T03:12:49;63.55;;;32.65;;
27706;SDS011;36332;51.384;0.040;2023-04-24T03:15:18;60.20;;;31.20;;
27706;SDS011;36332;51.384;0.040;2023-04-24T03:17:45;52.83;;;30.42;;
27706;SDS011;36332;51.384;0.040;2023-04-24T03:20:13;63.47;;;31.63;;
27706;SDS011;36332;51.384;0.040;2023-04-24T03:22:42;56.50;;;30.45;;
27706;SDS011;36332;51.384;0.040;2023-04-24T03:25:11;52.60;;;28.98;;
27706;SDS011;36332;51.384;0.040;2023-04-24T03:27:38;62.42;;;31.92;;
27706;SDS011;36332;51.384;0.040;2023-04-24T03:30:15;55.35;;;29.92;;
27706;SDS011;36332;51.384;0.040;2023-04-24T03:32:51;52.92;;;29.92;;
27706;SDS011;36332;51.384;0.040;2023-04-24T03:35:24;60.67;;;31.35;;
27706;SDS011;36332;51.384;0.040;2023-04-24T03:37:52;56.80;;;30.60;;
27706;SDS011;36332;51.384;0.040;2023-04-24T03:40:39;56.63;;;31.08;;
27706;SDS011;36332;51.384;0.040;2023-04-24T03:43:20;57.10;;;30.02;;
27706;SDS011;36332;51.384;0.040;2023-04-24T03:45:48;55.97;;;28.60;;
27706;SDS011;36332;51.384;0.040;2023-04-24T03:48:19;58.42;;;31.30;;
27706;SDS011;36332;51.384;0.040;2023-04-24T03:50:47;50.65;;;29.90;;
27706;SDS011;36332;51.384;0.040;2023-04-24T03:53:15;50.67;;;29.08;;
27706;SDS011;36332;51.384;0.040;2023-04-24T03:55:44;46.72;;;28.50;;
27706;SDS011;36332;51.384;0.040;2023-04-24T03:58:11;53.03;;;29.40;;
27706;SDS011;36332;51.384;0.040;2023-04-24T04:00:41;51.72;;;29.40;;
27706;SDS011;36332;51.384;0.040;2023-04-24T04:03:37;55.90;;;29.58;;
27706;SDS011;36332;51.384;0.040;2023-04-24T04:06:06;54.97;;;28.33;;
27706;SDS011;36332;51.384;0.040;2023-04-24T04:08:34;58.88;;;30.48;;
27706;SDS011;36332;51.384;0.040;2023-04-24T04:11:02;54.03;;;29.60;;
27706;SDS011;36332;51.384;0.040;2023-04-24T04:13:31;58.13;;;29.48;;
27706;SDS011;36332;51.384;0.040;2023-04-24T04:15:59;45.70;;;27.45;;
27706;SDS011;36332;51.384;0.040;2023-04-24T04:18:27;58.15;;;29.17;;
27706;SDS011;36332;51.384;0.040;2023-04-24T04:20:56;49.72;;;29.23;;
27706;SDS011;36332;51.384;0.040;2023-04-24T04:23:24;47.53;;;27.20;;
27706;SDS011;36332;51.384;0.040;2023-04-24T04:26:07;47.33;;;28.50;;
27706;SDS011;36332;51.384;0.040;2023-04-24T04:28:53;47.17;;;27.40;;
27706;SDS011;36332;51.384;0.040;2023-04-24T04:31:21;48.38;;;28.45;;
27706;SDS011;36332;51.384;0.040;2023-04-24T04:33:50;54.25;;;27.77;;
27706;SDS011;36332;51.384;0.040;2023-04-24T04:36:17;53.42;;;28.42;;
27706;SDS011;36332;51.384;0.040;2023-04-24T04:38:51;49.40;;;27.95;;
27706;SDS011;36332;51.384;0.040;2023-04-24T04:41:40;49.22;;;27.95;;
27706;SDS011;36332;51.384;0.040;2023-04-24T04:44:09;50.40;;;27.58;;
27706;SDS011;36332;51.384;0.040;2023-04-24T04:46:37;53.28;;;31.52;;
27706;SDS011;36332;51.384;0.040;2023-04-24T04:49:13;50.00;;;28.83;;
27706;SDS011;36332;51.384;0.040;2023-04-24T04:51:44;48.85;;;27.65;;
27706;SDS011;36332;51.384;0.040;2023-04-24T04:54:12;43.80;;;26.67;;
27706;SDS011;36332;51.384;0.040;2023-04-24T04:56:40;48.08;;;28.17;;
27706;SDS011;36332;51.384;0.040;2023-04-24T04:59:08;56.58;;;30.00;;
27706;SDS011;36332;51.384;0.040;2023-04-24T05:01:38;54.58;;;28.17;;
27706;SDS011;36332;51.384;0.040;2023-04-24T05:04:08;57.67;;;29.25;;
27706;SDS011;36332;51.384;0.040;2023-04-24T05:06:37;49.20;;;28.17;;
27706;SDS011;36332;51.384;0.040;2023-04-24T05:09:05;52.63;;;27.65;;
27706;SDS011;36332;51.384;0.040;2023-04-24T05:11:48;57.13;;;31.27;;
27706;SDS011;36332;51.384;0.040;2023-04-24T05:14:16;55.30;;;31.23;;
27706;SDS011;36332;51.384;0.040;2023-04-24T05:16:46;56.20;;;31.75;;
27706;SDS011;36332;51.384;0.040;2023-04-24T05:19:16;55.13;;;31.77;;
27706;SDS011;36332;51.384;0.040;2023-04-24T05:21:45;54.35;;;31.65;;
27706;SDS011;36332;51.384;0.040;2023-04-24T05:24:13;59.65;;;32.28;;
27706;SDS011;36332;51.384;0.040;2023-04-24T05:26:59;59.60;;;30.20;;
27706;SDS011;36332;51.384;0.040;2023-04-24T05:29:33;61.35;;;31.30;;
27706;SDS011;36332;51.384;0.040;2023-04-24T05:32:01;56.45;;;32.42;;
27706;SDS011;36332;51.384;0.040;2023-04-24T05:34:30;63.08;;;31.98;;
27706;SDS011;36332;51.384;0.040;2023-04-24T05:36:57;55.13;;;31.35;;
27706;SDS011;36332;51.384;0.040;2023-04-24T05:39:26;56.20;;;30.98;;
27706;SDS011;36332;51.384;0.040;2023-04-24T05:41:54;57.35;;;31.77;;
27706;SDS011;36332;51.384;0.040;2023-04-24T05:44:25;54.53;;;30.40;;
27706;SDS011;36332;51.384;0.040;2023-04-24T05:46:52;57.00;;;30.70;;
27706;SDS011;36332;51.384;0.040;2023-04-24T05:49:22;61.95;;;31.77;;
27706;SDS011;36332;51.384;0.040;2023-04-24T05:51:50;51.65;;;30.45;;
27706;SDS011;36332;51.384;0.040;2023-04-24T05:54:18;60.20;;;30.30;;
27706;SDS011;36332;51.384;0.040;2023-04-24T05:56:46;47.15;;;28.20;;
27706;SDS011;36332;51.384;0.040;2023-04-24T05:59:21;53.08;;;29.67;;
27706;SDS011;36332;51.384;0.040;2023-04-24T06:01:50;49.30;;;27.83;;
27706;SDS011;36332;51.384;0.040;2023-04-24T06:04:20;47.00;;;26.98;;
27706;SDS011;36332;51.384;0.040;2023-04-24T06:06:50;48.10;;;27.58;;
27706;SDS011;36332;51.384;0.040;2023-04-24T06:09:22;50.83;;;27.42;;
27706;SDS011;36332;51.384;0.040;2023-04-24T06:11:50;45.70;;;27.73;;
27706;SDS011;36332;51.384;0.040;2023-04-24T06:14:23;53.97;;;30.33;;
27706;SDS011;36332;51.384;0.040;2023-04-24T06:17:11;50.42;;;30.13;;
27706;SDS011;36332;51.384;0.040;2023-04-24T06:19:40;45.83;;;26.40;;
27706;SDS011;36332;51.384;0.040;2023-04-24T06:22:08;48.33;;;26.75;;
27706;SDS011;36332;51.384;0.040;2023-04-24T06:24:37;49.78;;;27.33;;
27706;SDS011;36332;51.384;0.040;2023-04-24T06:27:06;48.33;;;27.42;;
27706;SDS011;36332;51.384;0.040;2023-04-24T06:29:36;51.20;;;27.52;;
27706;SDS011;36332;51.384;0.040;2023-04-24T06:32:04;40.60;;;23.75;;
27706;SDS011;36332;51.384;0.040;2023-04-24T06:34:32;44.35;;;23.77;;
27706;SDS011;36332;51.384;0.040;2023-04-24T06:37:01;28.92;;;15.10;;
27706;SDS011;36332;51.384;0.040;2023-04-24T06:39:29;30.17;;;12.80;;
27706;SDS011;36332;51.384;0.040;2023-04-24T06:41:57;21.95;;;8.48;;
27706;SDS011;36332;51.384;0.040;2023-04-24T06:44:25;24.02;;;9.45;;
27706;SDS011;36332;51.384;0.040;2023-04-24T06:46:52;17.52;;;9.35;;
27706;SDS011;36332;51.384;0.040;2023-04-24T06:49:20;18.95;;;8.27;;
27706;SDS011;36332;51.384;0.040;2023-04-24T06:51:48;15.25;;;6.07;;
27706;SDS011;36332;51.384;0.040;2023-04-24T06:54:16;15.43;;;7.05;;
27706;SDS011;36332;51.384;0.040;2023-04-24T06:56:43;16.83;;;6.22;;
27706;SDS011;36332;51.384;0.040;2023-04-24T06:59:14;22.73;;;6.85;;
27706;SDS011;36332;51.384;0.040;2023-04-24T07:01:42;24.27;;;7.25;;
27706;SDS011;36332;51.384;0.040;2023-04-24T07:04:10;12.90;;;4.32;;
27706;SDS011;36332;51.384;0.040;2023-04-24T07:06:39;16.42;;;5.28;;
27706;SDS011;36332;51.384;0.040;2023-04-24T07:09:07;11.35;;;3.80;;
27706;SDS011;36332;51.384;0.040;2023-04-24T07:11:36;14.30;;;4.13;;
27706;SDS011;36332;51.384;0.040;2023-04-24T07:14:06;13.88;;;3.28;;
27706;SDS011;36332;51.384;0.040;2023-04-24T07:16:33;12.52;;;3.95;;
27706;SDS011;36332;51.384;0.040;2023-04-24T07:19:02;8.77;;;3.78;;
27706;SDS011;36332;51.384;0.040;2023-04-24T07:21:30;11.40;;;3.90;;
27706;SDS011;36332;51.384;0.040;2023-04-24T07:23:58;15.77;;;3.85;;
27706;SDS011;36332;51.384;0.040;2023-04-24T07:26:27;17.52;;;5.25;;
27706;SDS011;36332;51.384;0.040;2023-04-24T07:28:56;10.80;;;4.93;;
27706;SDS011;36332;51.384;0.040;2023-04-24T07:31:24;18.50;;;3.88;;
27706;SDS011;36332;51.384;0.040;2023-04-24T07:33:52;14.23;;;4.50;;
27706;SDS011;36332;51.384;0.040;2023-04-24T07:36:20;13.55;;;6.10;;
27706;SDS011;36332;51.384;0.040;2023-04-24T07:38:48;13.93;;;5.03;;
27706;SDS011;36332;51.384;0.040;2023-04-24T07:41:16;21.15;;;5.80;;
27706;SDS011;36332;51.384;0.040;2023-04-24T07:43:44;18.38;;;5.60;;
27706;SDS011;36332;51.384;0.040;2023-04-24T07:46:12;14.98;;;5.28;;
27706;SDS011;36332;51.384;0.040;2023-04-24T07:48:40;15.20;;;4.82;;
27706;SDS011;36332;51.384;0.040;2023-04-24T07:51:08;8.57;;;4.43;;
27706;SDS011;36332;51.384;0.040;2023-04-24T07:53:37;11.20;;;4.75;;
27706;SDS011;36332;51.384;0.040;2023-04-24T07:56:05;12.40;;;4.82;;
27706;SDS011;36332;51.384;0.040;2023-04-24T07:58:33;18.05;;;4.88;;
27706;SDS011;36332;51.384;0.040;2023-04-24T08:01:01;12.98;;;4.13;;
27706;SDS011;36332;51.384;0.040;2023-04-24T08:03:29;12.90;;;4.45;;
27706;SDS011;36332;51.384;0.040;2023-04-24T08:05:57;16.27;;;5.30;;
27706;SDS011;36332;51.384;0.040;2023-04-24T08:08:25;14.68;;;3.83;;
27706;SDS011;36332;51.384;0.040;2023-04-24T08:10:53;13.60;;;3.90;;
27706;SDS011;36332;51.384;0.040;2023-04-24T08:13:21;16.58;;;3.60;;
27706;SDS011;36332;51.384;0.040;2023-04-24T08:15:49;19.75;;;4.07;;
27706;SDS011;36332;51.384;0.040;2023-04-24T08:18:17;8.40;;;3.53;;
27706;SDS011;36332;51.384;0.040;2023-04-24T08:20:45;14.65;;;4.00;;
27706;SDS011;36332;51.384;0.040;2023-04-24T08:23:12;17.67;;;4.07;;
27706;SDS011;36332;51.384;0.040;2023-04-24T08:25:40;9.60;;;3.05;;
27706;SDS011;36332;51.384;0.040;2023-04-24T08:28:08;6.93;;;3.10;;
27706;SDS011;36332;51.384;0.040;2023-04-24T08:30:37;10.90;;;3.13;;
27706;SDS011;36332;51.384;0.040;2023-04-24T08:33:05;8.70;;;3.80;;
27706;SDS011;36332;51.384;0.040;2023-04-24T08:35:33;9.57;;;4.00;;
27706;SDS011;36332;51.384;0.040;2023-04-24T08:38:01;8.75;;;3.70;;
27706;SDS011;36332;51.384;0.040;2023-04-24T08:40:29;11.88;;;3.40;;
27706;SDS011;36332;51.384;0.040;2023-04-24T08:42:56;15.82;;;3.58;;
27706;SDS011;36332;51.384;0.040;2023-04-24T08:45:24;15.43;;;3.45;;
27706;SDS011;36332;51.384;0.040;2023-04-24T08:47:53;9.90;;;3.78;;
27706;SDS011;36332;51.384;0.040;2023-04-24T08:50:22;21.60;;;4.57;;
27706;SDS011;36332;51.384;0.040;2023-04-24T08:52:49;23.27;;;3.88;;
27706;SDS011;36332;51.384;0.040;2023-04-24T08:55:20;9.98;;;3.92;;
27706;SDS011;36332;51.384;0.040;2023-04-24T08:57:49;6.28;;;3.17;;
27706;SDS011;36332;51.384;0.040;2023-04-24T09:00:22;10.35;;;3.65;;
27706;SDS011;36332;51.384;0.040;2023-04-24T09:02:50;10.32;;;3.67;;
27706;SDS011;36332;51.384;0.040;2023-04-24T09:05:18;10.90;;;3.92;;
27706;SDS011;36332;51.384;0.040;2023-04-24T09:07:49;19.70;;;7.80;;
27706;SDS011;36332;51.384;0.040;2023-04-24T09:10:23;17.23;;;5.35;;
27706;SDS011;36332;51.384;0.040;2023-04-24T09:12:52;11.68;;;4.60;;
27706;SDS011;36332;51.384;0.040;2023-04-24T09:15:19;10.65;;;4.55;;
27706;SDS011;36332;51.384;0.040;2023-04-24T09:17:48;13.50;;;4.72;;
27706;SDS011;36332;51.384;0.040;2023-04-24T09:20:16;11.88;;;4.60;;
27706;SDS011;36332;51.384;0.040;2023-04-24T09:22:45;14.43;;;5.65;;
27706;SDS011;36332;51.384;0.040;2023-04-24T09:25:12;15.00;;;4.10;;
27706;SDS011;36332;51.384;0.040;2023-04-24T09:27:41;11.10;;;5.05;;
27706;SDS011;36332;51.384;0.040;2023-04-24T09:30:11;19.15;;;5.93;;
27706;SDS011;36332;51.384;0.040;2023-04-24T09:32:40;11.98;;;5.10;;
27706;SDS011;36332;51.384;0.040;2023-04-24T09:35:13;17.48;;;5.68;;
27706;SDS011;36332;51.384;0.040;2023-04-24T09:37:43;19.00;;;5.15;;
27706;SDS011;36332;51.384;0.040;2023-04-24T09:40:14;14.00;;;4.60;;
27706;SDS011;36332;51.384;0.040;2023-04-24T09:42:51;8.98;;;4.75;;
27706;SDS011;36332;51.384;0.040;2023-04-24T09:45:20;13.68;;;5.80;;
27706;SDS011;36332;51.384;0.040;2023-04-24T09:47:52;11.63;;;6.00;;
27706;SDS011;36332;51.384;0.040;2023-04-24T09:50:23;11.48;;;5.10;;
27706;SDS011;36332;51.384;0.040;2023-04-24T09:52:58;10.02;;;4.43;;
27706;SDS011;36332;51.384;0.040;2023-04-24T09:55:29;11.57;;;5.63;;
27706;SDS011;36332;51.384;0.040;2023-04-24T09:57:59;13.00;;;5.80;;
27706;SDS011;36332;51.384;0.040;2023-04-24T10:00:28;10.27;;;5.55;;
27706;SDS011;36332;51.384;0.040;2023-04-24T10:03:01;12.80;;;5.35;;
27706;SDS011;36332;51.384;0.040;2023-04-24T10:05:30;15.48;;;5.82;;
27706;SDS011;36332;51.384;0.040;2023-04-24T10:08:05;10.98;;;4.88;;
27706;SDS011;36332;51.384;0.040;2023-04-24T10:10:39;12.18;;;5.25;;
27706;SDS011;36332;51.384;0.040;2023-04-24T10:13:12;13.07;;;6.15;;
27706;SDS011;36332;51.384;0.040;2023-04-24T10:15:41;13.77;;;5.60;;
27706;SDS011;36332;51.384;0.040;2023-04-24T10:18:10;10.13;;;5.28;;
27706;SDS011;36332;51.384;0.040;2023-04-24T10:20:39;27.00;;;8.45;;
27706;SDS011;36332;51.384;0.040;2023-04-24T10:23:07;12.63;;;5.10;;
27706;SDS011;36332;51.384;0.040;2023-04-24T10:25:35;15.93;;;6.25;;
27706;SDS011;36332;51.384;0.040;2023-04-24T10:28:06;13.43;;;5.68;;
27706;SDS011;36332;51.384;0.040;2023-04-24T10:30:36;12.15;;;5.30;;
27706;SDS011;36332;51.384;0.040;2023-04-24T10:33:06;14.75;;;6.15;;
27706;SDS011;36332;51.384;0.040;2023-04-24T10:35:39;8.90;;;5.80;;
27706;SDS011;36332;51.384;0.040;2023-04-24T10:38:11;15.40;;;6.32;;
27706;SDS011;36332;51.384;0.040;2023-04-24T10:40:40;14.70;;;5.93;;
27706;SDS011;36332;51.384;0.040;2023-04-24T10:43:08;10.77;;;5.72;;
27706;SDS011;36332;51.384;0.040;2023-04-24T10:45:39;11.95;;;5.70;;
27706;SDS011;36332;51.384;0.040;2023-04-24T10:48:07;21.77;;;6.22;;
27706;SDS011;36332;51.384;0.040;2023-04-24T10:50:50;12.90;;;5.07;;
27706;SDS011;36332;51.384;0.040;2023-04-24T10:53:20;14.63;;;6.47;;
27706;SDS011;36332;51.384;0.040;2023-04-24T10:56:06;14.38;;;6.50;;
27706;SDS011;36332;51.384;0.040;2023-04-24T11:01:07;13.40;;;6.50;;
27706;SDS011;36332;51.384;0.040;2023-04-24T11:03:35;14.70;;;6.22;;
27706;SDS011;36332;51.384;0.040;2023-04-24T11:06:04;14.73;;;6.13;;
27706;SDS011;36332;51.384;0.040;2023-04-24T11:11:17;12.88;;;5.97;;
27706;SDS011;36332;51.384;0.040;2023-04-24T11:21:46;16.75;;;6.68;;
27706;SDS011;36332;51.384;0.040;2023-04-24T11:27:21;13.68;;;6.28;;
27706;SDS011;36332;51.384;0.040;2023-04-24T11:29:51;15.60;;;6.40;;
27706;SDS011;36332;51.384;0.040;2023-04-24T11:32:35;13.65;;;6.13;;
27706;SDS011;36332;51.384;0.040;2023-04-24T11:35:05;15.13;;;6.50;;
27706;SDS011;36332;51.384;0.040;2023-04-24T11:37:39;12.77;;;7.03;;
27706;SDS011;36332;51.384;0.040;2023-04-24T11:40:09;17.40;;;6.47;;
27706;SDS011;36332;51.384;0.040;2023-04-24T11:42:39;14.25;;;7.30;;
27706;SDS011;36332;51.384;0.040;2023-04-24T11:47:45;13.15;;;6.88;;
27706;SDS011;36332;51.384;0.040;2023-04-24T11:50:15;18.15;;;7.82;;
27706;SDS011;36332;51.384;0.040;2023-04-24T11:52:46;16.00;;;6.82;;
27706;SDS011;36332;51.384;0.040;2023-04-24T11:57:43;15.00;;;6.55;;
27706;SDS011;36332;51.384;0.040;2023-04-24T12:00:16;17.85;;;5.75;;
27706;SDS011;36332;51.384;0.040;2023-04-24T12:02:47;12.60;;;6.15;;
27706;SDS011;36332;51.384;0.040;2023-04-24T12:05:19;11.60;;;6.50;;
27706;SDS011;36332;51.384;0.040;2023-04-24T12:07:58;20.58;;;7.40;;
27706;SDS011;36332;51.384;0.040;2023-04-24T12:10:27;13.70;;;6.57;;
27706;SDS011;36332;51.384;0.040;2023-04-24T12:12:56;11.68;;;6.15;;
27706;SDS011;36332;51.384;0.040;2023-04-24T12:15:24;17.33;;;6.38;;
27706;SDS011;36332;51.384;0.040;2023-04-24T12:17:53;13.27;;;6.28;;
27706;SDS011;36332;51.384;0.040;2023-04-24T12:20:26;15.20;;;6.00;;
27706;SDS011;36332;51.384;0.040;2023-04-24T12:22:56;10.57;;;5.70;;
27706;SDS011;36332;51.384;0.040;2023-04-24T12:25:26;12.93;;;6.43;;
27706;SDS011;36332;51.384;0.040;2023-04-24T12:27:55;15.68;;;6.47;;
27706;SDS011;36332;51.384;0.040;2023-04-24T12:30:26;15.07;;;5.82;;
27706;SDS011;36332;51.384;0.040;2023-04-24T12:32:58;11.98;;;6.95;;
27706;SDS011;36332;51.384;0.040;2023-04-24T12:35:28;10.48;;;5.90;;
27706;SDS011;36332;51.384;0.040;2023-04-24T12:38:05;14.70;;;5.65;;
27706;SDS011;36332;51.384;0.040;2023-04-24T12:40:35;15.95;;;7.13;;
27706;SDS011;36332;51.384;0.040;2023-04-24T12:43:12;11.95;;;5.97;;
27706;SDS011;36332;51.384;0.040;2023-04-24T12:45:44;11.43;;;6.05;;
27706;SDS011;36332;51.384;0.040;2023-04-24T12:48:12;13.38;;;6.32;;
27706;SDS011;36332;51.384;0.040;2023-04-24T12:50:43;9.48;;;5.70;;
27706;SDS011;36332;51.384;0.040;2023-04-24T12:53:13;16.23;;;6.88;;
27706;SDS011;36332;51.384;0.040;2023-04-24T12:55:43;13.63;;;6.43;;
27706;SDS011;36332;51.384;0.040;2023-04-24T12:58:11;9.63;;;5.75;;
27706;SDS011;36332;51.384;0.040;2023-04-24T13:00:39;12.50;;;5.70;;
27706;SDS011;36332;51.384;0.040;2023-04-24T13:03:10;14.10;;;6.15;;
27706;SDS011;36332;51.384;0.040;2023-04-24T13:05:39;10.90;;;6.38;;
27706;SDS011;36332;51.384;0.040;2023-04-24T13:08:07;12.50;;;6.80;;
27706;SDS011;36332;51.384;0.040;2023-04-24T13:10:35;14.68;;;6.70;;
27706;SDS011;36332;51.384;0.040;2023-04-24T13:13:03;10.73;;;5.93;;
27706;SDS011;36332;51.384;0.040;2023-04-24T13:15:31;9.18;;;5.78;;
27706;SDS011;36332;51.384;0.040;2023-04-24T13:17:58;12.18;;;6.38;;
27706;SDS011;36332;51.384;0.040;2023-04-24T13:20:27;12.23;;;6.75;;
27706;SDS011;36332;51.384;0.040;2023-04-24T13:22:55;13.75;;;6.65;;
27706;SDS011;36332;51.384;0.040;2023-04-24T13:25:22;15.85;;;6.85;;
27706;SDS011;36332;51.384;0.040;2023-04-24T13:27:51;9.50;;;6.18;;
27706;SDS011;36332;51.384;0.040;2023-04-24T13:30:19;12.70;;;6.15;;
27706;SDS011;36332;51.384;0.040;2023-04-24T13:32:47;12.93;;;6.47;;
27706;SDS011;36332;51.384;0.040;2023-04-24T13:35:15;10.85;;;6.63;;
27706;SDS011;36332;51.384;0.040;2023-04-24T13:37:42;10.25;;;5.90;;
27706;SDS011;36332;51.384;0.040;2023-04-24T13:40:10;8.50;;;5.65;;
27706;SDS011;36332;51.384;0.040;2023-04-24T13:42:38;12.55;;;6.22;;
27706;SDS011;36332;51.384;0.040;2023-04-24T13:45:07;10.35;;;6.45;;
27706;SDS011;36332;51.384;0.040;2023-04-24T13:47:38;11.25;;;5.80;;
27706;SDS011;36332;51.384;0.040;2023-04-24T13:50:08;7.80;;;6.13;;
27706;SDS011;36332;51.384;0.040;2023-04-24T13:52:36;11.50;;;6.00;;
27706;SDS011;36332;51.384;0.040;2023-04-24T13:55:05;13.38;;;5.63;;
27706;SDS011;36332;51.384;0.040;2023-04-24T13:57:33;13.52;;;6.50;;
27706;SDS011;36332;51.384;0.040;2023-04-24T14:00:01;11.52;;;5.50;;
27706;SDS011;36332;51.384;0.040;2023-04-24T14:02:33;8.38;;;5.85;;
27706;SDS011;36332;51.384;0.040;2023-04-24T14:05:01;13.57;;;6.03;;
27706;SDS011;36332;51.384;0.040;2023-04-24T14:07:30;14.38;;;5.68;;
27706;SDS011;36332;51.384;0.040;2023-04-24T14:09:58;8.98;;;5.35;;
27706;SDS011;36332;51.384;0.040;2023-04-24T14:12:27;10.93;;;5.85;;
27706;SDS011;36332;51.384;0.040;2023-04-24T14:14:54;9.48;;;5.60;;
27706;SDS011;36332;51.384;0.040;2023-04-24T14:17:23;11.77;;;5.32;;
27706;SDS011;36332;51.384;0.040;2023-04-24T14:19:50;15.48;;;6.25;;
27706;SDS011;36332;51.384;0.040;2023-04-24T14:22:19;11.63;;;5.72;;
27706;SDS011;36332;51.384;0.040;2023-04-24T14:24:46;10.65;;;5.90;;
27706;SDS011;36332;51.384;0.040;2023-04-24T14:27:14;13.07;;;6.32;;
27706;SDS011;36332;51.384;0.040;2023-04-24T14:29:42;10.95;;;6.15;;
27706;SDS011;36332;51.384;0.040;2023-04-24T14:32:09;12.68;;;5.57;;
27706;SDS011;36332;51.384;0.040;2023-04-24T14:34:37;9.23;;;5.18;;
27706;SDS011;36332;51.384;0.040;2023-04-24T14:37:05;12.70;;;5.88;;
27706;SDS011;36332;51.384;0.040;2023-04-24T14:39:33;8.35;;;5.15;;
27706;SDS011;36332;51.384;0.040;2023-04-24T14:42:00;7.93;;;4.70;;
27706;SDS011;36332;51.384;0.040;2023-04-24T14:44:28;9.05;;;5.45;;
27706;SDS011;36332;51.384;0.040;2023-04-24T14:46:56;9.00;;;5.35;;
27706;SDS011;36332;51.384;0.040;2023-04-24T14:49:23;12.57;;;4.95;;
27706;SDS011;36332;51.384;0.040;2023-04-24T14:51:53;9.82;;;5.15;;
27706;SDS011;36332;51.384;0.040;2023-04-24T14:54:20;8.63;;;4.65;;
27706;SDS011;36332;51.384;0.040;2023-04-24T14:56:50;10.70;;;5.50;;
27706;SDS011;36332;51.384;0.040;2023-04-24T14:59:18;7.63;;;4.78;;
27706;SDS011;36332;51.384;0.040;2023-04-24T15:01:46;8.02;;;5.38;;
27706;SDS011;36332;51.384;0.040;2023-04-24T15:04:14;11.10;;;5.75;;
27706;SDS011;36332;51.384;0.040;2023-04-24T15:06:43;8.82;;;5.57;;